Time;durP1;ratioP1;P1;durP2;ratioP2;P2;SDS_P1;SDS_P2;PMS_P1;PMS_P2;Temp;Humidity;BMP_temperature;BMP_pressure;BME280_temperature;BME280_humidity;BME280_pressure;Samples;Min_cycle;Max_cycle;Signal;HPM_P1;HPM_P2
2022/10/12 00:01:44;;;;;;;2.70;2.15;;;19.10;61.80;;;;;;5089809;28;45193;-73
2022/10/12 00:04:11;;;;;;;3.42;2.35;;;19.10;61.70;;;;;;5089988;28;45304;-74
2022/10/12 00:06:38;;;;;;;3.53;2.40;;;19.10;61.70;;;;;;5090172;28;45324;-74
2022/10/12 00:09:05;;;;;;;2.53;2.20;;;19.10;61.70;;;;;;5089616;28;47310;-74
2022/10/12 00:11:32;;;;;;;4.15;2.35;;;19.00;61.60;;;;;;5089744;28;45215;-74
2022/10/12 00:13:59;;;;;;;2.10;1.90;;;19.00;61.60;;;;;;5089993;28;45177;-75
2022/10/12 00:16:30;;;;;;;3.05;2.22;;;19.00;61.50;;;;;;5089896;28;45320;-74
2022/10/12 00:18:57;;;;;;;3.33;2.28;;;19.00;61.50;;;;;;5088841;28;46613;-74
2022/10/12 00:21:24;;;;;;;2.88;1.98;;;19.00;61.50;;;;;;5089579;28;45229;-73
2022/10/12 00:23:51;;;;;;;1.90;1.70;;;19.00;61.50;;;;;;5089518;28;45210;-74
2022/10/12 00:26:18;;;;;;;2.72;2.10;;;19.00;61.50;;;;;;5089736;28;45378;-74
2022/10/12 00:28:45;;;;;;;2.58;2.15;;;19.00;61.50;;;;;;5089198;28;45471;-73
2022/10/12 00:31:13;;;;;;;3.35;2.05;;;19.00;61.50;;;;;;5089351;28;45240;-74
2022/10/12 00:33:41;;;;;;;3.35;2.20;;;19.00;61.40;;;;;;5089443;28;45177;-74
2022/10/12 00:36:13;;;;;;;4.82;2.20;;;19.00;61.50;;;;;;5089562;28;45262;-73
2022/10/12 00:38:40;;;;;;;2.63;2.10;;;18.90;61.40;;;;;;5088997;28;46661;-73
2022/10/12 00:41:07;;;;;;;2.03;1.80;;;18.90;61.40;;;;;;5089458;28;45339;-74
2022/10/12 00:43:34;;;;;;;2.50;2.03;;;18.90;61.30;;;;;;5089031;28;45282;-74
2022/10/12 00:46:02;;;;;;;3.55;2.40;;;18.90;61.30;;;;;;5089576;28;45304;-73
2022/10/12 00:48:29;;;;;;;2.92;2.00;;;18.90;61.30;;;;;;5088948;28;45270;-74
2022/10/12 00:50:57;;;;;;;2.08;1.88;;;18.90;61.30;;;;;;5089086;28;45130;-74
2022/10/12 00:53:26;;;;;;;1.95;1.80;;;18.90;61.30;;;;;;5089333;28;45357;-74
2022/10/12 00:55:54;;;;;;;2.58;1.83;;;18.90;61.30;;;;;;5089283;28;45123;-74
2022/10/12 00:58:21;;;;;;;2.75;1.80;;;18.90;61.20;;;;;;5088873;28;46424;-74
2022/10/12 01:00:48;;;;;;;2.47;1.92;;;18.90;61.20;;;;;;5088972;28;45344;-73
2022/10/12 01:03:16;;;;;;;3.75;2.00;;;18.90;61.10;;;;;;5089080;28;45331;-73
2022/10/12 01:05:43;;;;;;;3.20;2.00;;;18.90;61.10;;;;;;5087887;27;45213;-73
2022/10/12 01:08:12;;;;;;;1.88;1.50;;;18.90;61.10;;;;;;5088334;28;45530;-73
2022/10/12 01:10:38;;;;;;;3.67;1.85;;;18.90;61.10;;;;;;5088658;28;45382;-73
2022/10/12 01:13:05;;;;;;;3.50;2.25;;;18.90;61.10;;;;;;5088903;28;45252;-74
2022/10/12 01:15:34;;;;;;;2.88;2.15;;;18.90;61.10;;;;;;5089001;28;45408;-74
2022/10/12 01:18:04;;;;;;;4.22;2.10;;;18.90;61.10;;;;;;5088600;28;45602;-74
2022/10/12 01:20:36;;;;;;;3.42;1.60;;;18.80;61.10;;;;;;5088585;28;45391;-73
2022/10/12 01:23:27;;;;;;;3.83;1.88;;;18.80;61.00;;;;;;5088711;28;45338;-73
2022/10/12 01:26:04;;;;;;;1.95;1.75;;;18.80;61.00;;;;;;5088800;28;45279;-74
2022/10/12 01:28:34;;;;;;;2.08;1.65;;;18.80;61.00;;;;;;5088498;28;46401;-74
2022/10/12 01:31:04;;;;;;;3.00;1.85;;;18.80;61.00;;;;;;5088311;28;45250;-74
2022/10/12 01:33:32;;;;;;;3.05;1.90;;;18.80;60.90;;;;;;5088763;28;45238;-74
2022/10/12 01:36:01;;;;;;;2.97;1.73;;;18.80;61.00;;;;;;5088524;28;45396;-74
2022/10/12 01:38:35;;;;;;;4.75;1.90;;;18.80;60.90;;;;;;5088229;28;46827;-74
2022/10/12 01:41:05;;;;;;;2.63;1.83;;;18.80;60.90;;;;;;5088188;28;45283;-74
2022/10/12 01:43:35;;;;;;;2.35;1.50;;;18.80;60.80;;;;;;5088183;28;45193;-73
2022/10/12 01:46:27;;;;;;;3.35;1.58;;;18.80;60.80;;;;;;5088480;28;45392;-73
2022/10/12 01:48:54;;;;;;;3.28;1.80;;;18.80;60.80;;;;;;5087938;28;45338;-73
2022/10/12 01:51:24;;;;;;;2.08;1.88;;;18.80;60.80;;;;;;5088078;28;45253;-73
2022/10/12 01:53:54;;;;;;;2.33;1.73;;;18.80;60.80;;;;;;5088186;28;45176;-73
2022/10/12 01:56:25;;;;;;;2.08;1.73;;;18.80;60.80;;;;;;5088348;28;45291;-73
2022/10/12 01:58:55;;;;;;;2.25;1.60;;;18.70;60.80;;;;;;5088051;28;46552;-73
2022/10/12 02:01:27;;;;;;;2.30;1.75;;;18.70;60.70;;;;;;5087946;28;45394;-73
2022/10/12 02:03:57;;;;;;;2.63;1.80;;;18.70;60.70;;;;;;5088056;28;45289;-73
2022/10/12 02:06:26;;;;;;;2.80;1.50;;;18.70;60.80;;;;;;5088291;28;45422;-73
2022/10/12 02:08:55;;;;;;;2.03;1.50;;;18.70;60.70;;;;;;5087753;28;46608;-73
2022/10/12 02:11:23;;;;;;;2.67;1.70;;;18.70;60.70;;;;;;5087746;28;45382;-73
2022/10/12 02:13:51;;;;;;;2.05;1.85;;;18.70;60.70;;;;;;5088018;28;45138;-73
2022/10/12 02:16:19;;;;;;;2.42;1.77;;;18.70;60.60;;;;;;5088038;28;45115;-73
2022/10/12 02:18:48;;;;;;;2.42;1.65;;;18.70;60.60;;;;;;5086439;28;46387;-73
2022/10/12 02:21:17;;;;;;;1.65;1.55;;;18.70;60.70;;;;;;5087702;28;45329;-73
2022/10/12 02:23:44;;;;;;;2.25;1.55;;;18.70;60.70;;;;;;5087760;28;45326;-73
2022/10/12 02:26:11;;;;;;;1.63;1.52;;;18.70;60.70;;;;;;5087083;28;45314;-73
2022/10/12 02:28:38;;;;;;;2.00;1.50;;;18.70;60.80;;;;;;5087248;28;45266;-73
2022/10/12 02:31:09;;;;;;;2.13;1.65;;;18.70;60.60;;;;;;5087364;28;45188;-73
2022/10/12 02:33:38;;;;;;;3.08;1.98;;;18.70;60.70;;;;;;5087615;28;45514;-73
2022/10/12 02:36:12;;;;;;;2.78;1.60;;;18.70;60.60;;;;;;5087731;28;45306;-73
2022/10/12 02:38:39;;;;;;;1.80;1.50;;;18.70;60.50;;;;;;5087440;28;46538;-73
2022/10/12 02:41:08;;;;;;;1.63;1.30;;;18.70;60.50;;;;;;5087420;28;45213;-73
2022/10/12 02:43:36;;;;;;;1.50;1.33;;;18.70;60.60;;;;;;5069229;28;45332;-73
2022/10/12 02:46:03;;;;;;;2.40;1.70;;;18.60;60.50;;;;;;5087558;28;45307;-73
2022/10/12 02:48:30;;;;;;;2.40;1.75;;;18.70;60.60;;;;;;5087001;28;46387;-73
2022/10/12 02:50:57;;;;;;;2.97;1.65;;;18.70;60.50;;;;;;5087138;28;45135;-73
2022/10/12 02:53:27;;;;;;;1.83;1.58;;;18.60;60.50;;;;;;5087257;28;45333;-73
2022/10/12 02:55:55;;;;;;;1.85;1.45;;;18.60;60.50;;;;;;5087385;28;45404;-73
2022/10/12 02:58:22;;;;;;;3.50;1.80;;;18.60;60.50;;;;;;5087131;28;45255;-73
2022/10/12 03:00:48;;;;;;;2.85;1.48;;;18.60;60.40;;;;;;5087188;28;45193;-73
2022/10/12 03:03:15;;;;;;;1.83;1.65;;;18.60;60.50;;;;;;5087487;28;45269;-73
2022/10/12 03:05:42;;;;;;;3.10;1.52;;;18.60;60.40;;;;;;5087290;28;45396;-73
2022/10/12 03:08:09;;;;;;;1.40;1.30;;;18.60;60.40;;;;;;5086842;28;46490;-73
2022/10/12 03:10:37;;;;;;;1.77;1.35;;;18.60;60.40;;;;;;5086908;28;45238;-73
2022/10/12 03:13:04;;;;;;;2.65;1.90;;;18.60;60.40;;;;;;5087086;28;45307;-73
2022/10/12 03:15:31;;;;;;;2.10;1.58;;;18.60;60.50;;;;;;5086490;28;45299;-73
2022/10/12 03:17:58;;;;;;;1.70;1.58;;;18.60;60.40;;;;;;5086410;28;45478;-73
2022/10/12 03:20:24;;;;;;;2.72;2.10;;;18.60;60.50;;;;;;5084165;28;45296;-73
2022/10/12 03:22:51;;;;;;;2.15;1.55;;;18.60;60.40;;;;;;5086899;28;45142;-73
2022/10/12 03:25:18;;;;;;;2.20;1.60;;;18.60;60.40;;;;;;5087144;28;45170;-73
2022/10/12 03:27:46;;;;;;;1.98;1.50;;;18.60;60.40;;;;;;5086608;28;45793;-73
2022/10/12 03:30:14;;;;;;;2.90;1.65;;;18.60;60.40;;;;;;5089322;27;45277;-73
2022/10/12 03:32:40;;;;;;;2.58;1.30;;;18.60;60.40;;;;;;5090452;28;45172;-74
2022/10/12 03:35:08;;;;;;;1.88;1.60;;;18.60;60.30;;;;;;5090569;28;45174;-73
2022/10/12 03:37:35;;;;;;;2.40;1.50;;;18.60;60.40;;;;;;5090139;28;45309;-73
2022/10/12 03:40:02;;;;;;;2.13;1.55;;;18.60;60.40;;;;;;5090293;28;45316;-74
2022/10/12 03:42:29;;;;;;;1.90;1.40;;;18.50;60.30;;;;;;5090213;28;45233;-74
2022/10/12 03:44:57;;;;;;;2.65;1.33;;;18.50;60.30;;;;;;5090536;28;45211;-73
2022/10/12 03:47:24;;;;;;;2.83;1.60;;;18.50;60.40;;;;;;5090099;28;46641;-73
2022/10/12 03:49:51;;;;;;;1.77;1.40;;;18.50;60.30;;;;;;5090092;28;45319;-73
2022/10/12 03:52:17;;;;;;;2.63;1.70;;;18.50;60.40;;;;;;5090302;28;45292;-73
2022/10/12 03:54:44;;;;;;;1.65;1.40;;;18.50;60.30;;;;;;5090273;28;45337;-73
2022/10/12 03:57:11;;;;;;;2.25;1.50;;;18.50;60.30;;;;;;5089946;28;47362;-73
2022/10/12 03:59:38;;;;;;;3.15;1.60;;;18.50;60.30;;;;;;5089248;28;45190;-74
2022/10/12 04:02:06;;;;;;;2.75;1.55;;;18.50;60.20;;;;;;5090379;28;45187;-73
2022/10/12 04:04:33;;;;;;;2.17;1.70;;;18.50;60.20;;;;;;5090136;28;45396;-73
2022/10/12 04:07:00;;;;;;;3.03;1.60;;;18.50;60.30;;;;;;5089897;28;47244;-74
2022/10/12 04:09:27;;;;;;;2.08;1.30;;;18.50;60.30;;;;;;5089873;28;45205;-73
2022/10/12 04:11:53;;;;;;;2.80;1.48;;;18.50;60.30;;;;;;5089740;28;45251;-74
2022/10/12 04:14:20;;;;;;;1.70;1.40;;;18.50;60.20;;;;;;5089980;28;45288;-73
2022/10/12 04:16:47;;;;;;;2.83;1.50;;;18.50;60.20;;;;;;5089554;28;46664;-73
2022/10/12 04:19:15;;;;;;;2.45;1.60;;;18.50;60.20;;;;;;5089556;28;45283;-74
2022/10/12 04:21:42;;;;;;;3.05;1.42;;;18.50;60.20;;;;;;5089629;28;45180;-73
2022/10/12 04:24:09;;;;;;;3.85;1.52;;;18.50;60.20;;;;;;5089881;28;45384;-74
2022/10/12 04:26:36;;;;;;;3.25;1.92;;;18.50;60.20;;;;;;5089465;28;45453;-75
2022/10/12 04:29:03;;;;;;;1.92;1.30;;;18.50;60.20;;;;;;5089561;28;45280;-73
2022/10/12 04:31:30;;;;;;;2.05;1.67;;;18.50;60.20;;;;;;5089405;28;45426;-73
2022/10/12 04:33:57;;;;;;;1.95;1.27;;;18.50;60.20;;;;;;5089714;28;45574;-74
2022/10/12 04:36:25;;;;;;;2.63;1.30;;;18.50;60.20;;;;;;5089172;28;46388;-74
2022/10/12 04:38:52;;;;;;;2.30;1.60;;;18.50;60.20;;;;;;5089413;28;45460;-73
2022/10/12 04:41:19;;;;;;;2.20;1.60;;;18.50;60.20;;;;;;5088388;27;45352;-73
2022/10/12 04:43:46;;;;;;;3.78;1.63;;;18.50;60.20;;;;;;5088663;28;45291;-73
2022/10/12 04:46:12;;;;;;;4.43;1.70;;;18.50;60.20;;;;;;5089106;28;45642;-74
2022/10/12 04:48:39;;;;;;;2.67;1.70;;;18.50;60.20;;;;;;5089175;28;45247;-74
2022/10/12 04:51:06;;;;;;;2.20;1.48;;;18.50;60.20;;;;;;5089285;28;45391;-74
2022/10/12 04:53:34;;;;;;;2.30;1.63;;;18.50;60.20;;;;;;5086854;28;45315;-73
2022/10/12 04:56:02;;;;;;;2.47;1.83;;;18.50;60.20;;;;;;5088998;28;46492;-74
2022/10/12 04:58:29;;;;;;;3.00;1.73;;;18.50;60.20;;;;;;5089206;28;45178;-74
2022/10/12 05:00:56;;;;;;;3.40;2.08;;;18.40;60.20;;;;;;5089257;28;45404;-74
2022/10/12 05:03:23;;;;;;;2.22;1.67;;;18.40;60.20;;;;;;5089380;28;45337;-75
2022/10/12 05:05:50;;;;;;;3.75;1.90;;;18.40;60.20;;;;;;5088961;28;45359;-74
2022/10/12 05:08:17;;;;;;;3.90;1.52;;;18.40;60.20;;;;;;5089461;28;45217;-74
2022/10/12 05:10:46;;;;;;;3.00;1.50;;;18.40;60.20;;;;;;5088988;28;45194;-74
2022/10/12 05:13:13;;;;;;;3.55;2.08;;;18.40;60.20;;;;;;5089179;28;45284;-74
2022/10/12 05:15:40;;;;;;;3.90;1.85;;;18.40;60.20;;;;;;5088933;28;45471;-73
2022/10/12 05:18:07;;;;;;;3.30;1.60;;;18.40;60.10;;;;;;5088791;28;45185;-73
2022/10/12 05:20:34;;;;;;;2.13;1.40;;;18.40;60.20;;;;;;5088963;28;45254;-75
2022/10/12 05:23:01;;;;;;;1.90;1.40;;;18.40;60.20;;;;;;5088881;28;45215;-73
2022/10/12 05:25:29;;;;;;;2.60;1.70;;;18.40;60.20;;;;;;5086024;28;46410;-73
2022/10/12 05:27:57;;;;;;;3.00;1.80;;;18.40;60.20;;;;;;5087973;28;45397;-72
2022/10/12 05:30:24;;;;;;;2.90;1.70;;;18.40;60.20;;;;;;5088118;28;45190;-73
2022/10/12 05:32:50;;;;;;;3.58;1.77;;;18.40;60.10;;;;;;5088821;28;45559;-74
2022/10/12 05:35:17;;;;;;;3.20;1.80;;;18.40;60.20;;;;;;5088363;28;45466;-73
2022/10/12 05:37:44;;;;;;;2.47;1.80;;;18.40;60.20;;;;;;5088508;28;45344;-74
2022/10/12 05:40:11;;;;;;;3.13;1.40;;;18.40;60.20;;;;;;5088908;28;45290;-73
2022/10/12 05:42:38;;;;;;;1.85;1.67;;;18.40;60.20;;;;;;5088597;28;45193;-73
2022/10/12 05:45:07;;;;;;;2.50;1.58;;;18.40;60.20;;;;;;5088178;28;45735;-73
2022/10/12 05:47:34;;;;;;;3.33;1.60;;;18.40;60.20;;;;;;5088527;28;45236;-74
2022/10/12 05:50:01;;;;;;;2.28;1.55;;;18.40;60.20;;;;;;5088574;28;45274;-73
2022/10/12 05:52:28;;;;;;;4.38;1.63;;;18.30;60.10;;;;;;5088387;27;45188;-73
2022/10/12 05:54:55;;;;;;;3.38;2.15;;;18.40;60.20;;;;;;5088112;28;45288;-73
2022/10/12 05:57:21;;;;;;;2.53;1.70;;;18.40;60.10;;;;;;5088241;28;45272;-74
2022/10/12 05:59:48;;;;;;;1.88;1.73;;;18.40;60.10;;;;;;5088636;28;45291;-74
2022/10/12 06:02:18;;;;;;;2.83;1.40;;;18.30;60.10;;;;;;5088392;28;45503;-73
2022/10/12 06:04:45;;;;;;;1.90;1.73;;;18.30;60.10;;;;;;5087811;28;45360;-73
2022/10/12 06:07:11;;;;;;;3.25;1.88;;;18.30;60.10;;;;;;5088047;28;45209;-73
2022/10/12 06:09:38;;;;;;;2.78;1.60;;;18.30;60.20;;;;;;5088209;28;45261;-74
2022/10/12 06:12:06;;;;;;;1.98;1.70;;;18.30;60.10;;;;;;5087865;28;45566;-73
2022/10/12 06:14:32;;;;;;;2.33;1.75;;;18.30;60.10;;;;;;5087115;28;47278;-74
2022/10/12 06:16:59;;;;;;;3.10;1.80;;;18.30;60.10;;;;;;5087806;28;45202;-74
2022/10/12 06:19:27;;;;;;;3.78;1.75;;;18.30;60.20;;;;;;5087782;28;45208;-73
2022/10/12 06:21:54;;;;;;;3.05;1.92;;;18.30;60.10;;;;;;5088046;28;45329;-74
2022/10/12 06:24:21;;;;;;;3.35;1.65;;;18.30;60.10;;;;;;5087579;28;46678;-74
2022/10/12 06:26:48;;;;;;;3.20;1.95;;;18.30;60.10;;;;;;5087620;28;45188;-74
2022/10/12 06:29:16;;;;;;;3.90;1.90;;;18.30;60.10;;;;;;5087730;28;45198;-74
2022/10/12 06:31:43;;;;;;;2.33;1.80;;;18.30;60.20;;;;;;5087568;28;45432;-74
2022/10/12 06:34:10;;;;;;;3.38;1.70;;;18.30;60.20;;;;;;5087434;28;46558;-74
2022/10/12 06:36:38;;;;;;;2.22;1.58;;;18.30;60.20;;;;;;5087445;28;45306;-74
2022/10/12 06:39:05;;;;;;;3.80;1.92;;;18.30;60.20;;;;;;5087642;28;45227;-75
2022/10/12 06:41:32;;;;;;;1.60;1.50;;;18.30;60.10;;;;;;5087742;28;45185;-74
2022/10/12 06:43:58;;;;;;;3.00;1.92;;;18.30;60.10;;;;;;5087302;28;45300;-74
2022/10/12 06:46:25;;;;;;;2.47;1.83;;;18.30;60.10;;;;;;5087265;28;45324;-74
2022/10/12 06:48:52;;;;;;;4.68;2.15;;;18.30;60.10;;;;;;5087434;28;45300;-75
2022/10/12 06:51:19;;;;;;;2.53;1.70;;;18.30;60.90;;;;;;5087416;28;45270;-73
2022/10/12 06:53:47;;;;;;;2.42;2.00;;;18.30;60.10;;;;;;5087089;28;45288;-74
2022/10/12 06:56:14;;;;;;;3.15;1.70;;;18.30;60.10;;;;;;5086875;28;45298;-73
2022/10/12 06:58:41;;;;;;;3.65;2.15;;;18.30;60.20;;;;;;5086570;28;45319;-74
2022/10/12 07:01:09;;;;;;;1.95;1.77;;;18.30;60.20;;;;;;5087546;28;45272;-74
2022/10/12 07:03:36;;;;;;;2.28;1.63;;;18.30;60.10;;;;;;5086162;28;45278;-74
2022/10/12 07:06:07;;;;;;;3.22;1.90;;;18.30;60.10;;;;;;5087178;28;45186;-74
2022/10/12 07:08:34;;;;;;;2.80;1.75;;;18.30;60.20;;;;;;5087071;28;45182;-74
2022/10/12 07:11:03;;;;;;;3.17;2.00;;;18.30;60.20;;;;;;5087283;28;45447;-74
2022/10/12 07:13:30;;;;;;;2.10;1.80;;;18.30;60.20;;;;;;5086954;28;46671;-74
2022/10/12 07:15:56;;;;;;;2.13;1.92;;;18.30;60.20;;;;;;5086985;28;45247;-74
2022/10/12 07:18:23;;;;;;;2.85;1.88;;;18.30;60.20;;;;;;5087261;28;45316;-74
2022/10/12 07:20:50;;;;;;;2.70;1.70;;;18.30;60.20;;;;;;5087196;28;45325;-74
2022/10/12 07:23:19;;;;;;;2.97;2.00;;;18.30;60.20;;;;;;5086746;28;45462;-74
2022/10/12 07:25:49;;;;;;;2.45;2.10;;;18.30;60.20;;;;;;5086707;28;45252;-74
2022/10/12 07:28:17;;;;;;;1.98;1.60;;;18.30;60.20;;;;;;5086961;28;45211;-74
2022/10/12 07:30:44;;;;;;;1.70;1.60;;;18.30;60.90;;;;;;5086939;28;45266;-74
2022/10/12 07:33:11;;;;;;;2.65;2.17;;;18.30;60.20;;;;;;5086819;28;45307;-74
2022/10/12 07:35:38;;;;;;;2.67;2.15;;;18.30;60.20;;;;;;5086589;28;45230;-74
2022/10/12 07:38:05;;;;;;;2.95;1.90;;;18.30;60.30;;;;;;5086566;28;45299;-74
2022/10/12 07:40:32;;;;;;;4.15;2.20;;;18.30;60.30;;;;;;5087016;28;45189;-74
2022/10/12 07:42:59;;;;;;;5.00;2.00;;;18.30;60.30;;;;;;5086484;28;46482;-74
2022/10/12 07:45:28;;;;;;;3.72;2.35;;;18.30;60.30;;;;;;5085839;28;45301;-74
2022/10/12 07:47:55;;;;;;;3.45;2.38;;;18.30;60.30;;;;;;5086920;28;45148;-74
2022/10/12 07:50:22;;;;;;;4.07;1.90;;;18.30;60.30;;;;;;5086732;28;45471;-74
2022/10/12 07:52:49;;;;;;;3.22;2.03;;;18.30;61.00;;;;;;5086208;28;46413;-74
2022/10/12 07:55:15;;;;;;;3.00;2.08;;;18.30;60.30;;;;;;5086309;28;45321;-74
2022/10/12 07:57:43;;;;;;;3.95;1.80;;;18.30;60.20;;;;;;5086807;28;45334;-74
2022/10/12 08:00:11;;;;;;;2.85;2.00;;;18.30;60.20;;;;;;5087183;28;45211;-74
2022/10/12 08:02:39;;;;;;;2.97;2.10;;;18.40;60.20;;;;;;5086358;28;45194;-74
2022/10/12 08:05:07;;;;;;;3.55;1.95;;;18.40;60.20;;;;;;5086533;28;45307;-74
2022/10/12 08:07:34;;;;;;;2.58;2.08;;;18.40;60.20;;;;;;5083985;28;45340;-74
2022/10/12 08:10:00;;;;;;;3.33;2.10;;;18.40;60.20;;;;;;5086748;28;45546;-74
2022/10/12 08:12:27;;;;;;;3.05;2.03;;;18.40;60.20;;;;;;5086110;28;46307;-74
2022/10/12 08:14:54;;;;;;;3.17;2.17;;;18.40;60.20;;;;;;5084696;28;45352;-74
2022/10/12 08:17:21;;;;;;;4.10;2.78;;;18.40;60.20;;;;;;5090750;28;45299;-74
2022/10/12 08:19:49;;;;;;;2.35;2.10;;;18.50;60.20;;;;;;5090281;28;45290;-74
2022/10/12 08:22:16;;;;;;;2.10;1.90;;;18.50;60.10;;;;;;5090183;28;45157;-74
2022/10/12 08:24:43;;;;;;;4.30;2.20;;;18.50;60.00;;;;;;5090204;28;45312;-74
2022/10/12 08:27:10;;;;;;;2.20;1.90;;;18.50;60.00;;;;;;5090687;28;45258;-74
2022/10/12 08:29:38;;;;;;;3.25;2.15;;;18.50;60.00;;;;;;5090199;28;45508;-74
2022/10/12 08:32:05;;;;;;;2.42;2.10;;;18.60;60.00;;;;;;5089876;28;45479;-74
2022/10/12 08:34:32;;;;;;;2.65;2.17;;;18.60;59.90;;;;;;5089678;28;45209;-74
2022/10/12 08:37:00;;;;;;;2.35;2.13;;;18.60;59.90;;;;;;5089571;28;45244;-74
2022/10/12 08:39:27;;;;;;;3.65;2.13;;;18.70;59.80;;;;;;5089675;28;45253;-74
2022/10/12 08:41:58;;;;;;;2.40;1.98;;;18.70;59.90;;;;;;5088914;28;45601;-74
2022/10/12 08:44:50;;;;;;;2.45;2.15;;;18.70;59.90;;;;;;5089265;28;45313;-74
2022/10/12 08:47:18;;;;;;;2.75;2.20;;;18.70;59.90;;;;;;5082685;28;45210;-74
2022/10/12 08:49:44;;;;;;;2.28;2.08;;;18.70;59.90;;;;;;5090158;28;45440;-74
2022/10/12 08:52:23;;;;;;;2.75;2.35;;;18.70;59.90;;;;;;5089184;28;46316;-74
2022/10/12 08:54:50;;;;;;;2.65;2.10;;;18.70;59.90;;;;;;5089028;28;45126;-74
2022/10/12 08:57:17;;;;;;;3.75;2.20;;;18.70;59.90;;;;;;5089529;28;45205;-74
2022/10/12 08:59:44;;;;;;;3.03;2.30;;;18.70;59.90;;;;;;5089609;28;45249;-74
2022/10/12 09:02:25;;;;;;;2.13;1.92;;;18.70;59.90;;;;;;5089325;28;45516;-74
2022/10/12 09:04:53;;;;;;;2.30;2.10;;;18.70;59.80;;;;;;5089150;28;45229;-74
2022/10/12 09:07:24;;;;;;;2.08;1.88;;;18.80;59.90;;;;;;5088931;28;45324;-74
2022/10/12 09:10:03;;;;;;;2.17;1.83;;;18.80;59.80;;;;;;5089038;28;45626;-74
2022/10/12 09:12:36;;;;;;;2.88;2.22;;;18.80;59.80;;;;;;5088394;28;46616;-74
2022/10/12 09:15:06;;;;;;;3.38;1.98;;;18.80;59.80;;;;;;5088763;28;45295;-74
2022/10/12 09:17:37;;;;;;;1.92;1.80;;;18.80;59.70;;;;;;5088873;28;45314;-74
2022/10/12 09:20:05;;;;;;;2.40;2.20;;;18.90;59.80;;;;;;5088985;28;45191;-73
2022/10/12 09:22:34;;;;;;;2.60;2.10;;;18.90;59.70;;;;;;5088806;28;45665;-73
2022/10/12 09:25:00;;;;;;;3.03;1.90;;;18.90;59.80;;;;;;5088685;28;45191;-74
2022/10/12 09:27:29;;;;;;;2.47;2.28;;;18.90;59.70;;;;;;5088144;27;45189;-73
2022/10/12 09:29:58;;;;;;;2.50;1.90;;;18.90;59.70;;;;;;5088793;28;45283;-74
2022/10/12 09:32:40;;;;;;;1.95;1.80;;;18.90;59.70;;;;;;5088223;28;46554;-73
2022/10/12 09:35:07;;;;;;;2.20;2.00;;;18.90;59.70;;;;;;5088527;28;45315;-73
2022/10/12 09:37:36;;;;;;;2.78;1.95;;;18.90;59.70;;;;;;5088418;28;45389;-73
2022/10/12 09:40:03;;;;;;;2.10;1.90;;;18.90;59.70;;;;;;5088661;28;45222;-73
2022/10/12 09:42:30;;;;;;;2.20;2.00;;;19.00;59.70;;;;;;5088069;28;46629;-73
2022/10/12 09:44:59;;;;;;;2.50;2.10;;;19.00;59.70;;;;;;5087435;28;45383;-73
2022/10/12 09:47:28;;;;;;;2.83;1.92;;;19.00;59.70;;;;;;5087711;28;45262;-73
2022/10/12 09:49:57;;;;;;;2.33;2.13;;;19.00;59.60;;;;;;5088383;28;45202;-73
2022/10/12 09:52:26;;;;;;;2.17;1.70;;;19.00;59.60;;;;;;5087848;28;45562;-73
2022/10/12 09:54:56;;;;;;;3.80;2.30;;;19.10;59.70;;;;;;5088043;28;45267;-73
2022/10/12 09:57:24;;;;;;;2.28;2.03;;;19.10;59.60;;;;;;5088173;28;45355;-73
2022/10/12 09:59:51;;;;;;;2.65;2.10;;;19.10;59.60;;;;;;5088240;28;45170;-73
2022/10/12 10:02:19;;;;;;;2.53;2.28;;;19.10;59.40;;;;;;5087692;28;46431;-74
2022/10/12 10:04:46;;;;;;;2.60;2.40;;;19.20;59.40;;;;;;5087827;28;45237;-74
2022/10/12 10:07:19;;;;;;;2.38;2.00;;;19.20;59.40;;;;;;5087864;28;45384;-74
2022/10/12 10:10:03;;;;;;;2.20;2.00;;;19.20;59.30;;;;;;5088031;28;45526;-74
2022/10/12 10:12:34;;;;;;;2.75;2.55;;;19.20;59.30;;;;;;5087575;28;46388;-74
2022/10/12 10:15:01;;;;;;;2.80;2.17;;;19.30;59.30;;;;;;5087828;28;45230;-73
2022/10/12 10:17:28;;;;;;;2.38;2.17;;;19.30;59.30;;;;;;5087858;28;45267;-75
2022/10/12 10:19:56;;;;;;;2.42;1.90;;;19.30;59.30;;;;;;5087906;28;45260;-74
2022/10/12 10:22:23;;;;;;;2.08;1.88;;;19.30;59.30;;;;;;5087644;28;46398;-74
2022/10/12 10:24:51;;;;;;;2.97;2.10;;;19.40;59.30;;;;;;5087644;28;45234;-75
2022/10/12 10:27:32;;;;;;;2.83;2.30;;;19.40;59.10;;;;;;5087611;28;45131;-74
2022/10/12 10:30:20;;;;;;;2.97;2.22;;;19.40;59.10;;;;;;5087675;28;45387;-74
2022/10/12 10:32:47;;;;;;;2.58;2.13;;;19.50;59.00;;;;;;5087315;28;46934;-75
2022/10/12 10:35:19;;;;;;;2.85;2.40;;;19.50;59.00;;;;;;5087343;28;45215;-75
2022/10/12 10:37:48;;;;;;;2.88;2.10;;;19.60;59.10;;;;;;5066953;28;45376;-75
2022/10/12 10:40:17;;;;;;;2.40;2.20;;;19.60;58.90;;;;;;5067058;28;45225;-75
2022/10/12 10:42:49;;;;;;;2.33;2.13;;;19.60;58.90;;;;;;5066593;28;45367;-75
2022/10/12 10:45:22;;;;;;;2.20;2.00;;;19.60;58.90;;;;;;5080595;28;45265;-74
2022/10/12 10:47:49;;;;;;;3.85;2.75;;;19.70;58.80;;;;;;5087440;28;45232;-74
2022/10/12 10:50:24;;;;;;;2.53;2.20;;;19.70;58.80;;;;;;5087869;28;45397;-75
2022/10/12 10:52:54;;;;;;;2.70;2.47;;;19.80;58.70;;;;;;5087365;28;45290;-74
2022/10/12 10:55:21;;;;;;;3.38;2.20;;;19.90;58.70;;;;;;5087321;28;45246;-74
2022/10/12 10:57:54;;;;;;;2.33;2.13;;;19.90;58.60;;;;;;5087186;28;45193;-75
2022/10/12 11:00:21;;;;;;;3.45;2.22;;;19.80;58.70;;;;;;5084851;28;45293;-73
2022/10/12 11:02:50;;;;;;;2.55;2.28;;;19.80;58.80;;;;;;5086323;28;45276;-74
2022/10/12 11:05:19;;;;;;;2.58;2.38;;;19.80;58.90;;;;;;5086801;28;45307;-74
2022/10/12 11:07:47;;;;;;;2.40;2.20;;;19.80;59.00;;;;;;5087198;28;45341;-73
2022/10/12 11:10:19;;;;;;;3.53;2.40;;;19.80;59.10;;;;;;5087316;28;45388;-74
2022/10/12 11:12:48;;;;;;;2.17;1.92;;;19.80;59.20;;;;;;5087165;28;45459;-74
2022/10/12 11:15:20;;;;;;;2.50;2.30;;;19.80;59.40;;;;;;5086980;28;45249;-73
2022/10/12 11:17:48;;;;;;;2.78;2.55;;;19.80;59.30;;;;;;5087069;28;45222;-75
2022/10/12 11:20:50;;;;;;;2.28;2.08;;;19.80;59.30;;;;;;5087250;28;45248;-74
2022/10/12 11:23:24;;;;;;;2.80;2.42;;;19.80;59.50;;;;;;5076042;28;45617;-74
2022/10/12 11:25:59;;;;;;;2.88;2.50;;;19.80;59.40;;;;;;5086621;28;45310;-74
2022/10/12 11:28:27;;;;;;;2.58;2.20;;;19.80;59.60;;;;;;5084648;28;45372;-75
2022/10/12 11:30:55;;;;;;;1.90;1.80;;;19.80;59.30;;;;;;5085780;28;45386;-74
2022/10/12 11:33:22;;;;;;;4.18;2.72;;;19.80;59.40;;;;;;5082383;28;46682;-75
2022/10/12 11:35:49;;;;;;;3.25;2.42;;;19.80;59.40;;;;;;5085875;28;45354;-74
2022/10/12 11:38:19;;;;;;;2.92;2.53;;;19.80;59.40;;;;;;5086811;28;45296;-74
2022/10/12 11:40:48;;;;;;;2.35;2.13;;;19.80;59.50;;;;;;5087504;28;45440;-73
2022/10/12 11:43:16;;;;;;;2.40;2.15;;;19.80;59.60;;;;;;5086233;28;45464;-74
2022/10/12 11:45:46;;;;;;;2.65;2.45;;;19.80;59.40;;;;;;5086528;28;45168;-74
2022/10/12 11:48:14;;;;;;;3.78;2.40;;;19.80;59.40;;;;;;5086749;28;45380;-75
2022/10/12 11:50:42;;;;;;;2.42;2.22;;;19.80;59.40;;;;;;5087439;27;45503;-74
2022/10/12 11:53:18;;;;;;;2.42;2.20;;;19.90;59.50;;;;;;5090292;28;46675;-74
2022/10/12 11:55:55;;;;;;;2.88;2.30;;;19.90;59.50;;;;;;5078910;28;45422;-74
2022/10/12 11:58:23;;;;;;;2.40;2.20;;;19.90;59.60;;;;;;5090284;28;45246;-74
2022/10/12 12:01:12;;;;;;;3.35;2.13;;;19.90;59.50;;;;;;5090237;28;45336;-74
2022/10/12 12:04:11;;;;;;;5.50;2.45;;;19.90;59.60;;;;;;5089852;28;46414;-74
2022/10/12 12:06:53;;;;;;;3.13;2.22;;;19.90;59.50;;;;;;5063968;28;45312;-74
2022/10/12 12:09:22;;;;;;;3.00;2.33;;;19.90;59.50;;;;;;5069449;28;45185;-75
2022/10/12 12:11:49;;;;;;;3.42;2.42;;;19.90;59.40;;;;;;5068605;28;45247;-75
2022/10/12 12:14:45;;;;;;;3.85;2.72;;;19.90;59.60;;;;;;5068963;28;46659;-75
2022/10/12 12:17:19;;;;;;;3.35;2.30;;;19.90;59.60;;;;;;5077213;28;45331;-75
2022/10/12 12:19:49;;;;;;;3.08;2.60;;;19.90;59.60;;;;;;5089632;28;45351;-75
2022/10/12 12:22:32;;;;;;;3.67;2.60;;;20.00;59.70;;;;;;5089788;28;45181;-76
2022/10/12 12:25:05;;;;;;;3.88;2.42;;;19.90;59.60;;;;;;5089476;28;46279;-74
2022/10/12 12:27:38;;;;;;;2.92;2.60;;;20.00;59.40;;;;;;5086078;27;45447;-74
2022/10/12 12:30:20;;;;;;;5.43;2.35;;;20.00;59.50;;;;;;5089606;28;45328;-75
2022/10/12 12:32:48;;;;;;;4.35;2.40;;;20.00;59.50;;;;;;5085982;27;45327;-74
2022/10/12 12:35:25;;;;;;;4.38;2.95;;;20.00;59.50;;;;;;5089078;28;45352;-74
2022/10/12 12:38:03;;;;;;;3.85;2.70;;;20.10;59.50;;;;;;5068813;28;45287;-75
2022/10/12 12:40:30;;;;;;;3.60;2.67;;;20.10;59.60;;;;;;5069245;28;45230;-75
2022/10/12 12:43:21;;;;;;;6.78;2.35;;;20.10;59.40;;;;;;5068833;28;45227;-76
2022/10/12 12:45:55;;;;;;;6.07;2.70;;;20.10;59.40;;;;;;5083567;27;46363;-75
2022/10/12 12:48:56;;;;;;;6.07;2.83;;;20.20;59.40;;;;;;5088923;28;45415;-75
2022/10/12 12:51:25;;;;;;;3.83;2.40;;;20.20;59.40;;;;;;5089376;28;45199;-75
2022/10/12 12:53:56;;;;;;;5.43;2.30;;;20.20;60.10;;;;;;5077435;27;45507;-75
2022/10/12 12:56:24;;;;;;;4.25;2.33;;;20.30;59.50;;;;;;5089024;28;45332;-74
2022/10/12 12:58:57;;;;;;;4.80;2.20;;;20.30;59.40;;;;;;5088691;28;45369;-74